createdAt,value
2019-02-28T00:01:06.871Z,21.55
2019-02-28T00:03:36.229Z,20.43
2019-02-28T00:06:05.607Z,20.48
2019-02-28T00:08:35.255Z,19.87
2019-02-28T00:11:05.931Z,20.97
2019-02-28T00:13:35.714Z,20.57
2019-02-28T00:16:07.147Z,20.50
2019-02-28T00:18:36.497Z,19.95
2019-02-28T00:21:07.000Z,20.10
2019-02-28T00:23:36.814Z,21.87
2019-02-28T00:26:06.230Z,21.33
2019-02-28T00:28:35.806Z,21.80
2019-02-28T00:31:05.258Z,21.15
2019-02-28T00:33:34.632Z,20.37
2019-02-28T00:36:03.944Z,20.48
2019-02-28T00:38:33.519Z,21.73
2019-02-28T00:41:02.874Z,19.65
2019-02-28T00:43:32.187Z,20.95
2019-02-28T00:46:01.556Z,22.30
2019-02-28T00:48:31.020Z,21.05
2019-02-28T00:51:00.327Z,20.17
2019-02-28T00:53:29.636Z,20.50
2019-02-28T00:55:58.997Z,21.17
2019-02-28T00:58:28.859Z,21.15
2019-02-28T01:00:59.180Z,20.95
2019-02-28T01:03:28.547Z,20.77
2019-02-28T01:05:57.876Z,21.07
2019-02-28T01:08:27.161Z,21.17
2019-02-28T01:10:59.442Z,21.52
2019-02-28T01:13:28.787Z,21.23
2019-02-28T01:15:58.073Z,21.23
2019-02-28T01:18:27.682Z,20.80
2019-02-28T01:20:56.976Z,21.17
2019-02-28T01:23:29.413Z,20.15
2019-02-28T01:25:57.634Z,20.43
2019-02-28T01:28:27.702Z,21.45
2019-02-28T01:30:57.201Z,20.37
2019-02-28T01:33:26.758Z,22.02
2019-02-28T01:35:56.076Z,21.40
2019-02-28T01:38:25.386Z,21.25
2019-02-28T01:40:54.746Z,21.52
2019-02-28T01:43:28.524Z,21.33
2019-02-28T01:45:55.119Z,21.95
2019-02-28T01:48:24.476Z,22.05
2019-02-28T01:50:56.443Z,21.40
2019-02-28T01:53:25.766Z,21.55
2019-02-28T01:55:55.122Z,21.82
2019-02-28T01:58:24.733Z,22.65
2019-02-28T02:00:57.346Z,22.00
2019-02-28T02:03:25.492Z,22.45
2019-02-28T02:05:54.791Z,23.40
2019-02-28T02:08:24.531Z,22.65
2019-02-28T02:10:55.972Z,23.47
2019-02-28T02:13:24.945Z,24.50
2019-02-28T02:15:54.746Z,24.15
2019-02-28T02:18:24.191Z,24.55
2019-02-28T02:20:53.761Z,22.58
2019-02-28T02:23:23.356Z,23.47
2019-02-28T02:25:52.737Z,23.32
2019-02-28T02:28:26.661Z,24.30
2019-02-28T02:30:53.427Z,23.65
2019-02-28T02:33:23.116Z,23.35
2019-02-28T02:35:52.490Z,23.85
2019-02-28T02:38:21.795Z,23.12
2019-02-28T02:40:51.157Z,23.38
2019-02-28T02:43:21.992Z,23.00
2019-02-28T02:45:51.502Z,24.00
2019-02-28T02:48:20.858Z,24.20
2019-02-28T02:50:50.172Z,24.47
2019-02-28T02:53:19.785Z,25.45
2019-02-28T02:55:49.140Z,24.80
2019-02-28T02:58:18.451Z,25.23
2019-02-28T03:00:51.133Z,24.12
2019-02-28T03:03:18.839Z,24.80
2019-02-28T03:05:48.147Z,25.68
2019-02-28T03:08:17.769Z,25.43
2019-02-28T03:10:47.140Z,24.95
2019-02-28T03:13:16.761Z,24.43
2019-02-28T03:15:46.055Z,25.68
2019-02-28T03:18:20.559Z,25.00
2019-02-28T03:20:47.098Z,25.80
2019-02-28T03:23:16.415Z,26.80
2019-02-28T03:25:46.120Z,24.85
2019-02-28T03:28:15.445Z,26.40
2019-02-28T03:30:44.765Z,25.90
2019-02-28T03:33:24.179Z,26.77
2019-02-28T03:35:45.454Z,26.45
2019-02-28T03:38:14.768Z,27.60
2019-02-28T03:40:44.174Z,26.35
2019-02-28T03:43:13.758Z,27.20
2019-02-28T03:45:43.086Z,27.30
2019-02-28T03:48:12.418Z,28.30
2019-02-28T03:50:42.066Z,28.75
2019-02-28T03:53:11.390Z,27.30
2019-02-28T03:55:41.656Z,29.10
2019-02-28T03:58:11.414Z,27.40
2019-02-28T04:00:40.756Z,27.80
2019-02-28T04:03:10.416Z,27.07
2019-02-28T04:05:39.807Z,27.77
2019-02-28T04:08:09.152Z,28.83
2019-02-28T04:10:38.497Z,28.60
2019-02-28T04:13:08.125Z,28.70
2019-02-28T04:15:37.458Z,28.98
2019-02-28T04:18:08.411Z,28.55
2019-02-28T04:20:38.243Z,29.92
2019-02-28T04:23:07.513Z,29.12
2019-02-28T04:25:36.882Z,29.90
2019-02-28T04:28:06.202Z,31.73
2019-02-28T04:30:42.602Z,29.00
2019-02-28T04:33:06.883Z,31.15
2019-02-28T04:35:36.184Z,30.75
2019-02-28T04:38:05.752Z,31.70
2019-02-28T04:40:35.458Z,32.53
2019-02-28T04:43:07.284Z,31.70
2019-02-28T04:45:35.805Z,31.37
2019-02-28T04:48:05.418Z,31.65
2019-02-28T04:50:35.001Z,30.80
2019-02-28T04:53:04.318Z,33.53
2019-02-28T04:55:34.277Z,32.48
2019-02-28T04:58:05.111Z,32.25
2019-02-28T05:00:37.841Z,31.10
2019-02-28T05:03:05.937Z,32.13
2019-02-28T05:05:35.264Z,32.80
2019-02-28T05:08:05.579Z,32.25
2019-02-28T05:10:35.521Z,31.37
2019-02-28T05:13:05.156Z,32.75
2019-02-28T05:15:37.339Z,32.63
2019-02-28T05:18:05.554Z,32.10
2019-02-28T05:20:35.723Z,33.73
2019-02-28T05:23:05.039Z,32.88
2019-02-28T05:25:34.404Z,31.93
2019-02-28T05:28:06.724Z,32.80
2019-02-28T05:30:34.809Z,33.23
2019-02-28T05:33:06.647Z,33.63
2019-02-28T05:35:35.525Z,31.97
2019-02-28T05:38:04.891Z,32.90
2019-02-28T05:40:34.255Z,33.53
2019-02-28T05:43:03.572Z,33.13
2019-02-28T05:45:32.879Z,32.42
2019-02-28T05:48:03.907Z,34.75
2019-02-28T05:50:33.304Z,33.63
2019-02-28T05:53:03.072Z,34.03
2019-02-28T05:55:32.614Z,32.95
2019-02-28T05:58:04.752Z,32.83
2019-02-28T06:00:37.057Z,33.55
2019-02-28T06:03:05.487Z,32.73
2019-02-28T06:05:34.847Z,33.92
2019-02-28T06:08:04.496Z,33.83
2019-02-28T06:10:33.853Z,32.53
2019-02-28T06:13:03.169Z,33.58
2019-02-28T06:15:34.230Z,33.08
2019-02-28T06:18:03.849Z,33.30
2019-02-28T06:20:34.996Z,33.88
2019-02-28T06:23:06.282Z,33.45
2019-02-28T06:25:35.390Z,33.92
2019-02-28T06:28:05.049Z,32.95
2019-02-28T06:30:34.660Z,34.20
2019-02-28T06:33:04.260Z,33.48
2019-02-28T06:35:33.571Z,33.38
2019-02-28T06:38:02.906Z,32.58
2019-02-28T06:40:33.122Z,33.33
2019-02-28T06:43:03.259Z,32.15
2019-02-28T06:45:36.716Z,34.03
2019-02-28T06:48:03.652Z,32.70
2019-02-28T06:50:32.972Z,33.28
2019-02-28T06:53:02.335Z,31.80
2019-02-28T06:55:31.696Z,33.75
2019-02-28T06:58:01.285Z,31.80
2019-02-28T07:00:30.597Z,33.18
2019-02-28T07:03:03.417Z,32.63
2019-02-28T07:05:31.302Z,32.25
2019-02-28T07:08:00.611Z,32.33
2019-02-28T07:10:30.037Z,32.53
2019-02-28T07:13:04.074Z,31.00
2019-02-28T07:15:30.387Z,31.00
2019-02-28T07:18:01.870Z,30.75
2019-02-28T07:20:31.194Z,31.45
2019-02-28T07:23:00.496Z,31.60
2019-02-28T07:25:29.856Z,31.45
2019-02-28T07:28:01.514Z,32.15
2019-02-28T07:30:30.214Z,31.42
2019-02-28T07:33:01.972Z,30.35
2019-02-28T07:35:33.777Z,30.45
2019-02-28T07:38:02.367Z,30.65
2019-02-28T07:40:33.290Z,30.95
2019-02-28T07:43:02.864Z,31.55
2019-02-28T07:45:33.118Z,30.80
2019-02-28T07:48:03.626Z,30.50
2019-02-28T07:50:32.958Z,30.20
2019-02-28T07:53:05.520Z,27.80
2019-02-28T07:55:33.660Z,30.32
2019-02-28T07:58:03.032Z,31.35
2019-02-28T08:00:32.713Z,28.23
2019-02-28T08:03:02.078Z,28.70
2019-02-28T08:05:31.582Z,30.65
2019-02-28T08:08:01.326Z,27.45
2019-02-28T08:10:35.400Z,30.17
2019-02-28T08:13:04.793Z,28.77
2019-02-28T08:15:34.542Z,28.92
2019-02-28T08:18:05.771Z,28.35
2019-02-28T08:20:35.029Z,27.30
2019-02-28T08:23:04.592Z,29.65
2019-02-28T08:25:33.983Z,28.98
2019-02-28T08:28:03.260Z,25.82
2019-02-28T08:30:35.164Z,25.62
2019-02-28T08:33:04.892Z,23.30
2019-02-28T08:35:35.744Z,24.87
2019-02-28T08:38:06.729Z,28.45
2019-02-28T08:40:36.378Z,27.65
2019-02-28T08:43:05.689Z,25.68
2019-02-28T08:45:35.023Z,26.85
2019-02-28T08:48:07.898Z,24.45
2019-02-28T08:50:37.339Z,29.35
2019-02-28T08:53:12.416Z,28.25
2019-02-28T08:55:44.201Z,24.98
2019-02-28T08:58:12.498Z,27.13
2019-02-28T09:00:41.814Z,27.05
2019-02-28T09:03:11.198Z,28.32
2019-02-28T09:05:40.815Z,27.98
2019-02-28T09:08:10.407Z,29.92
2019-02-28T09:10:39.778Z,26.45
2019-02-28T09:13:09.089Z,27.05
2019-02-28T09:15:38.877Z,29.25
2019-02-28T09:18:11.027Z,27.62
2019-02-28T09:20:41.443Z,27.93
2019-02-28T09:23:11.811Z,27.82
2019-02-28T09:25:42.092Z,27.30
2019-02-28T09:28:13.034Z,27.55
2019-02-28T09:30:49.638Z,26.77
2019-02-28T09:33:19.361Z,26.73
2019-02-28T09:35:50.003Z,27.90
2019-02-28T09:38:19.647Z,27.40
2019-02-28T09:40:49.240Z,26.93
2019-02-28T09:43:18.562Z,27.27
2019-02-28T09:45:47.939Z,25.95
2019-02-28T09:48:17.255Z,24.95
2019-02-28T09:50:46.572Z,25.90
2019-02-28T09:53:16.763Z,24.90
2019-02-28T09:55:48.061Z,27.58
2019-02-28T09:58:17.724Z,26.37
2019-02-28T10:00:50.217Z,24.80
2019-02-28T10:03:19.417Z,27.00
2019-02-28T10:05:49.198Z,26.52
2019-02-28T10:08:18.814Z,26.07
2019-02-28T10:10:48.129Z,24.90
2019-02-28T10:13:18.495Z,26.85
2019-02-28T10:15:48.116Z,27.00
2019-02-28T10:18:17.442Z,25.10
2019-02-28T10:20:46.805Z,24.67
2019-02-28T10:23:18.459Z,25.88
2019-02-28T10:25:47.498Z,24.75
2019-02-28T10:28:17.310Z,24.43
2019-02-28T10:30:47.185Z,26.35
2019-02-28T10:33:18.103Z,27.10
2019-02-28T10:35:48.117Z,25.92
2019-02-28T10:38:17.432Z,21.15
2019-02-28T10:40:49.305Z,27.55
2019-02-28T10:43:21.214Z,27.75
2019-02-28T10:45:50.538Z,27.32
2019-02-28T10:48:19.866Z,28.60
2019-02-28T10:50:49.312Z,30.40
2019-02-28T10:53:18.907Z,28.42
2019-02-28T10:55:48.227Z,30.70
2019-02-28T10:58:17.938Z,29.65
2019-02-28T11:00:47.333Z,29.42
2019-02-28T11:03:17.095Z,31.33
2019-02-28T11:05:46.808Z,31.23
2019-02-28T11:08:19.253Z,33.02
2019-02-28T11:10:49.279Z,25.57
2019-02-28T11:13:22.496Z,29.67
2019-02-28T11:15:52.555Z,32.93
2019-02-28T11:18:22.457Z,30.90
2019-02-28T11:20:51.989Z,35.25
2019-02-28T11:23:23.313Z,34.63
2019-02-28T11:25:53.085Z,32.50
2019-02-28T11:28:27.778Z,35.28
2019-02-28T11:30:54.167Z,36.28
2019-02-28T11:33:23.891Z,33.60
2019-02-28T11:35:57.667Z,33.95
2019-02-28T11:38:24.360Z,37.17
2019-02-28T11:40:57.273Z,36.25
2019-02-28T11:43:26.816Z,36.70
2019-02-28T11:46:00.821Z,30.45
2019-02-28T11:48:29.748Z,36.05
2019-02-28T11:50:59.197Z,38.15
2019-02-28T11:53:28.518Z,38.08
2019-02-28T11:55:58.251Z,34.35
2019-02-28T11:58:27.949Z,38.50
2019-02-28T12:00:57.645Z,30.72
2019-02-28T12:03:27.083Z,30.68
2019-02-28T12:05:56.508Z,29.57
2019-02-28T12:08:25.825Z,28.20
2019-02-28T12:10:55.139Z,25.95
2019-02-28T12:13:24.572Z,25.62
2019-02-28T12:15:54.178Z,23.65
2019-02-28T12:18:23.526Z,29.95
2019-02-28T12:20:53.009Z,26.48
2019-02-28T12:23:23.415Z,25.65
2019-02-28T12:25:53.440Z,28.32
2019-02-28T12:28:22.883Z,29.92
2019-02-28T12:30:52.195Z,27.00
2019-02-28T12:33:23.377Z,27.82
2019-02-28T12:35:54.793Z,27.65
2019-02-28T12:38:25.906Z,30.12
2019-02-28T12:40:55.340Z,29.95
2019-02-28T12:43:24.991Z,30.02
2019-02-28T12:45:56.797Z,26.10
2019-02-28T12:48:27.124Z,33.73
2019-02-28T12:50:56.873Z,23.05
2019-02-28T12:53:26.212Z,32.88
2019-02-28T12:55:55.520Z,33.33
2019-02-28T12:58:24.887Z,36.63
2019-02-28T13:00:56.394Z,38.53
2019-02-28T13:03:25.945Z,38.23
2019-02-28T13:05:55.314Z,29.45
2019-02-28T13:08:24.717Z,35.52
2019-02-28T13:10:54.446Z,33.18
2019-02-28T13:13:27.647Z,37.75
2019-02-28T13:15:55.207Z,31.40
2019-02-28T13:18:24.530Z,32.35
2019-02-28T13:20:54.198Z,31.62
2019-02-28T13:23:23.514Z,28.02
2019-02-28T13:25:58.815Z,29.23
2019-02-28T13:28:23.949Z,25.85
2019-02-28T13:30:53.353Z,23.40
2019-02-28T13:33:22.965Z,31.93
2019-02-28T13:35:52.657Z,24.63
2019-02-28T13:38:22.402Z,24.77
2019-02-28T13:40:51.733Z,28.55
2019-02-28T13:43:22.792Z,27.80
2019-02-28T13:45:55.974Z,29.72
2019-02-28T13:48:26.562Z,27.80
2019-02-28T13:50:55.040Z,22.67
2019-02-28T13:53:27.008Z,25.65
2019-02-28T13:55:57.873Z,26.02
2019-02-28T13:58:26.490Z,26.40
2019-02-28T14:00:58.847Z,22.35
2019-02-28T14:03:28.486Z,23.12
2019-02-28T14:05:58.132Z,24.20
2019-02-28T14:08:27.700Z,22.87
2019-02-28T14:10:57.033Z,22.58
2019-02-28T14:13:30.034Z,21.95
2019-02-28T14:15:57.833Z,21.85
2019-02-28T14:18:27.153Z,20.62
2019-02-28T14:20:59.432Z,19.32
2019-02-28T14:23:27.748Z,22.25
2019-02-28T14:25:57.138Z,20.95
2019-02-28T14:28:26.582Z,20.23
2019-02-28T14:30:57.517Z,20.40
2019-02-28T14:33:27.118Z,21.30
2019-02-28T14:35:56.863Z,17.87
2019-02-28T14:38:26.210Z,19.73
2019-02-28T14:40:55.505Z,16.35
2019-02-28T14:43:24.869Z,18.32
2019-02-28T14:45:54.192Z,15.18
2019-02-28T14:48:23.698Z,17.77
2019-02-28T14:50:54.077Z,18.23
2019-02-28T14:53:24.352Z,17.02
2019-02-28T14:55:54.041Z,16.77
2019-02-28T14:58:23.406Z,15.85
2019-02-28T15:00:52.897Z,14.43
2019-02-28T15:03:22.223Z,14.80
2019-02-28T15:05:52.410Z,16.42
2019-02-28T15:08:22.925Z,15.60
2019-02-28T15:10:53.284Z,14.60
2019-02-28T15:13:23.050Z,17.42
2019-02-28T15:15:53.213Z,15.95
2019-02-28T15:18:23.370Z,14.70
2019-02-28T15:20:52.763Z,15.30
2019-02-28T15:23:22.386Z,14.68
2019-02-28T15:25:54.199Z,14.68
2019-02-28T15:28:24.277Z,13.48
2019-02-28T15:30:53.973Z,13.70
2019-02-28T15:33:23.579Z,13.98
2019-02-28T15:35:53.210Z,14.15
2019-02-28T15:38:22.631Z,12.90
2019-02-28T15:40:51.944Z,13.45
2019-02-28T15:43:21.595Z,11.40
2019-02-28T15:45:50.910Z,12.00
2019-02-28T15:48:20.226Z,12.60
2019-02-28T15:50:51.696Z,10.85
2019-02-28T15:53:20.654Z,11.68
2019-02-28T15:55:50.120Z,9.30
2019-02-28T15:58:19.550Z,9.18
2019-02-28T16:00:48.944Z,10.15
2019-02-28T16:03:18.544Z,10.32
2019-02-28T16:05:48.080Z,8.75
2019-02-28T16:08:17.396Z,8.35
2019-02-28T16:10:53.294Z,8.13
2019-02-28T16:13:18.107Z,7.75
2019-02-28T16:15:49.934Z,7.15
2019-02-28T16:18:18.506Z,7.72
2019-02-28T16:20:47.976Z,7.22
2019-02-28T16:23:17.554Z,8.70
2019-02-28T16:25:47.857Z,6.92
2019-02-28T16:28:18.303Z,6.60
2019-02-28T16:30:48.024Z,6.10
2019-02-28T16:33:20.832Z,6.30
2019-02-28T16:35:50.224Z,5.75
2019-02-28T16:38:19.798Z,5.17
2019-02-28T16:40:49.262Z,5.53
2019-02-28T16:43:20.947Z,5.15
2019-02-28T16:45:51.202Z,5.25
2019-02-28T16:48:20.537Z,5.03
2019-02-28T16:50:50.628Z,5.25
2019-02-28T16:53:20.951Z,5.50
2019-02-28T16:55:50.550Z,5.60
2019-02-28T16:58:21.897Z,5.95
2019-02-28T17:00:51.131Z,6.20
2019-02-28T17:03:20.705Z,6.92
2019-02-28T17:05:50.073Z,5.70
2019-02-28T17:08:19.564Z,5.80
2019-02-28T17:10:49.538Z,5.85
2019-02-28T17:13:26.623Z,6.25
2019-02-28T17:16:02.378Z,6.35
2019-02-28T17:18:33.264Z,6.45
2019-02-28T17:21:02.658Z,6.22
2019-02-28T17:23:33.683Z,6.35
2019-02-28T17:26:03.651Z,6.60
2019-02-28T17:28:37.611Z,6.10
2019-02-28T17:31:20.807Z,6.12
2019-02-28T17:33:50.382Z,6.20
2019-02-28T17:36:20.575Z,6.40
2019-02-28T17:38:50.963Z,5.60
2019-02-28T17:41:20.274Z,5.17
2019-02-28T17:44:18.295Z,5.00
2019-02-28T17:46:52.405Z,5.30
2019-02-28T17:49:49.910Z,5.25
2019-02-28T17:52:30.505Z,5.72
2019-02-28T17:55:27.041Z,5.03
2019-02-28T17:58:20.813Z,6.20
2019-02-28T18:01:09.874Z,5.62
2019-02-28T18:03:49.780Z,4.87
2019-02-28T18:06:56.860Z,5.30
2019-02-28T18:09:51.502Z,4.78
2019-02-28T18:12:56.663Z,5.80
2019-02-28T18:15:50.823Z,4.95
2019-02-28T18:18:42.529Z,4.85
2019-02-28T18:21:31.762Z,5.80
2019-02-28T18:24:05.749Z,5.83
2019-02-28T18:26:51.566Z,5.67
2019-02-28T18:29:37.503Z,4.90
2019-02-28T18:32:06.954Z,4.87
2019-02-28T18:34:37.388Z,4.35
2019-02-28T18:37:07.818Z,4.37
2019-02-28T18:39:37.148Z,5.25
2019-02-28T18:42:06.509Z,4.33
2019-02-28T18:44:37.460Z,3.52
2019-02-28T18:47:07.610Z,3.70
2019-02-28T18:49:37.095Z,3.08
2019-02-28T18:52:06.775Z,3.90
2019-02-28T18:54:36.091Z,3.62
2019-02-28T18:57:05.791Z,3.62
2019-02-28T18:59:35.396Z,3.15
2019-02-28T19:02:05.497Z,3.92
2019-02-28T19:04:34.878Z,3.37
2019-02-28T19:07:04.193Z,4.50
2019-02-28T19:09:33.827Z,4.55
2019-02-28T19:12:03.194Z,4.53
2019-02-28T19:14:32.512Z,4.37
2019-02-28T19:17:01.819Z,5.03
2019-02-28T19:19:31.432Z,4.47
2019-02-28T19:22:00.744Z,5.03
2019-02-28T19:24:30.062Z,4.97
2019-02-28T19:26:59.428Z,4.90
2019-02-28T19:29:29.046Z,5.55
2019-02-28T19:31:58.360Z,5.85
2019-02-28T19:34:27.784Z,6.10
2019-02-28T19:36:57.292Z,5.78
2019-02-28T19:39:26.880Z,6.28
2019-02-28T19:41:56.240Z,6.62
2019-02-28T19:44:25.557Z,6.15
2019-02-28T19:46:54.869Z,6.95
2019-02-28T19:49:24.243Z,6.70
2019-02-28T19:51:53.608Z,6.65
2019-02-28T19:54:22.916Z,8.70
2019-02-28T19:56:54.931Z,6.97
2019-02-28T19:59:24.251Z,7.47
2019-02-28T20:01:53.601Z,7.72
2019-02-28T20:04:22.958Z,8.10
2019-02-28T20:06:52.283Z,9.83
2019-02-28T20:09:21.668Z,8.40
2019-02-28T20:11:51.447Z,7.47
2019-02-28T20:14:20.762Z,7.35
2019-02-28T20:16:50.251Z,7.30
2019-02-28T20:19:19.637Z,7.37
2019-02-28T20:21:49.010Z,7.03
2019-02-28T20:24:18.318Z,6.75
2019-02-28T20:26:47.797Z,5.25
2019-02-28T20:29:19.025Z,6.00
2019-02-28T20:31:48.724Z,6.42
2019-02-28T20:34:18.487Z,6.35
2019-02-28T20:36:47.801Z,5.85
2019-02-28T20:39:17.389Z,7.55
2019-02-28T20:41:47.030Z,7.25
2019-02-28T20:44:16.522Z,6.17
2019-02-28T20:46:46.171Z,17.30
2019-02-28T20:49:15.566Z,8.98
2019-02-28T20:51:54.587Z,25.57
2019-02-28T20:54:16.265Z,10.45
2019-02-28T20:56:45.609Z,8.58
2019-02-28T20:59:14.888Z,8.10
2019-02-28T21:01:44.354Z,9.90
2019-02-28T21:04:13.664Z,8.13
2019-02-28T21:06:43.035Z,8.80
2019-02-28T21:09:15.586Z,9.20
2019-02-28T21:11:44.907Z,8.73
2019-02-28T21:14:14.330Z,8.28
2019-02-28T21:16:43.640Z,7.78
2019-02-28T21:19:12.957Z,9.05
2019-02-28T21:21:42.552Z,8.25
2019-02-28T21:24:12.221Z,8.28
2019-02-28T21:26:41.532Z,8.40
2019-02-28T21:29:11.220Z,8.55
2019-02-28T21:31:40.523Z,9.10
2019-02-28T21:34:09.839Z,8.68
2019-02-28T21:36:39.536Z,8.95
2019-02-28T21:39:09.806Z,10.00
2019-02-28T21:41:39.117Z,9.33
2019-02-28T21:44:08.757Z,11.08
2019-02-28T21:46:38.064Z,9.60
2019-02-28T21:49:07.378Z,8.88
2019-02-28T21:51:36.764Z,11.85
2019-02-28T21:54:06.091Z,8.78
2019-02-28T21:56:35.401Z,11.73
2019-02-28T21:59:05.165Z,9.73
2019-02-28T22:01:34.536Z,10.65
2019-02-28T22:04:05.318Z,8.45
2019-02-28T22:06:34.743Z,8.15
2019-02-28T22:09:05.991Z,7.92
2019-02-28T22:11:35.297Z,8.65
2019-02-28T22:14:04.669Z,9.55
2019-02-28T22:16:33.981Z,8.28
2019-02-28T22:19:03.291Z,8.75
2019-02-28T22:21:32.964Z,9.83
2019-02-28T22:24:02.281Z,8.55
2019-02-28T22:26:31.604Z,11.55
2019-02-28T22:29:00.963Z,8.50
2019-02-28T22:31:31.971Z,8.30
2019-02-28T22:34:09.009Z,10.05
2019-02-28T22:36:39.964Z,8.53
2019-02-28T22:39:11.115Z,8.88
2019-02-28T22:41:40.776Z,14.83
2019-02-28T22:44:10.092Z,9.15
2019-02-28T22:46:39.406Z,7.85
2019-02-28T22:49:11.482Z,7.55
2019-02-28T22:51:40.775Z,7.45
2019-02-28T22:54:10.082Z,7.03
2019-02-28T22:56:39.762Z,6.65
2019-02-28T22:59:09.366Z,6.28
2019-02-28T23:01:39.394Z,5.70
2019-02-28T23:04:08.749Z,6.00
2019-02-28T23:06:38.398Z,6.37
2019-02-28T23:09:08.333Z,6.17
2019-02-28T23:11:37.677Z,6.28
2019-02-28T23:14:06.996Z,6.20
2019-02-28T23:16:36.301Z,6.28
2019-02-28T23:19:06.109Z,6.03
2019-02-28T23:21:35.498Z,6.85
2019-02-28T23:24:05.132Z,6.08
2019-02-28T23:26:55.325Z,6.47
2019-02-28T23:29:27.257Z,6.58
2019-02-28T23:32:31.310Z,5.72
2019-02-28T23:35:00.628Z,6.50
2019-02-28T23:37:30.199Z,6.20
2019-02-28T23:39:59.566Z,6.72
2019-02-28T23:42:28.877Z,6.40
2019-02-28T23:44:58.242Z,6.87
2019-02-28T23:47:27.927Z,5.60
2019-02-28T23:49:57.229Z,5.90
2019-02-28T23:52:26.609Z,5.97
2019-02-28T23:54:55.947Z,6.12
2019-02-28T23:57:25.531Z,6.33
2019-02-28T23:59:54.845Z,6.22
